Pasco, WA

4:43 PM PDT en Septiembre 02, 2014 (GMT -0700)
West Pasco / Island Estates | Change Station
CLOSE
Current Station
Estación meteorológica personal
Location: Pasco, WA
Altura: 495 ft
Estaciones meteorológicas cercanas

Alt 495 ft 46.28 °N, 119.20 °W | Updated 2 seconds ago

Clear
Despejado
83.3 ° F
Sensación térmica 82 ° F
N
8.1
Viento Variable Viento desde SSO
Gusts 8.1 mph

Hoy
Alta -- | Baja -- ° F
--% Posibilidad de precipitaciones
Ayer
Alta -- | Baja -- ° F
Precip. -- pul
6:18 AM 7:32 PM
Cuarto creciente, 56% visible
Presión 29.69 pul
Visibilidad 10.0 Millas
Nubes Despejado
Índice de calor 82 ° F
Punto de rocío 53 ° F
Humedad 35%
Precipitaciones 0.00 pul
Espesor de la nieve No disponible.
UV 4 de una escala de 12
Polen 5.80 de una escala de 12
Calidad del aire No disponible.
Flu Activity No disponible.
METAR KPSC 022253Z 21010KT 10SM CLR 29/08 A2969 RMK AO2 SLP053 T02890083

More Conditions Fewer Conditions

Presión 29.69 pul
Visibilidad 10.0 Millas
Nubes Despejado
Índice de calor 82 ° F
Punto de rocío 53 ° F
Humedad 35%
Precipitaciones 0.00 pul
Espesor de la nieve No disponible.
UV 4 de una escala de 12
Polen 5.80 de una escala de 12
Calidad del aire No disponible.
Flu Activity No disponible.
METAR KPSC 022253Z 21010KT 10SM CLR 29/08 A2969 RMK AO2 SLP053 T02890083

More Conditions Fewer Conditions

10-Day Weather Forecast

Almanac

Astronomía

Sep. 02, 2014 Salida Puesta
Hora real 6:18 AM PDT 7:32 PM PDT
Crepúsculo civil 5:47 AM PDT 8:03 PM PDT
Crepúsculo náutico 5:09 AM PDT 8:41 PM PDT
Crepúsculo astronómico 4:29 AM PDT 9:20 PM PDT
Luna 2:31 PM PDT Sin puesta de luna
Horas de luz 14h 16m
Horas de luz
13h 14m
Tomorrow will be 3m 11s shorter.
Cuarto creciente, 56% of the Moon is Illuminated
Hoy
Cuarto creciente
Sep 8
Luna llena
Sep 15
Cuarto menguante
Sep 24
Nueva
Oct 1
Cuarto creciente

Extremos de hoy

Máximos del estado Bajos del estado

Community

WunderPhotos

Upload Photos

1,749,799 ¡fotos cargadas!

Nearby

Grosos de nieve

Estación Profundido Altura
Spruce Springs 0 in 5700 ft
Sourdough Gulch 0 in 4000 ft
Trough 0 in 5300 ft
Upper Wheeler 0 in 4400 ft
Grouse Camp 1 in 5380 ft

Actividad de terremotos

Ciudad Distance Mag. Tiempo y dato
No hay informes recientes de la actividad sísmica.
Magnitud mínima muestra es 2,5.

Temperaturas de aguas costeras

Lugar Temperatura
Sin partes meteorológicos de las estaciones

Estaciones meteorológicas cercanas